ESSB/BMA METAR and TAF weather

Enter ICAO airport designator
Station Type Date Time Source
ESSB METAR 2019/05/26 00:50 UTC NOAA

ESSB 260050Z AUTO 21005KT 9999 SCT016/// BKN026/// OVC047/// 11/10 Q1000


Station Type Date Time Source
ESSB Decoded METAR 2019/05/26 00:50 UTC NOAA

Stockholm / Bromma, Sweden (ESSB) 59-21N 017-57E 14M
May 25, 2019 - 08:50 PM EDT / 2019.05.26 0050 UTC
Wind: from the SSW (210 degrees) at 6 MPH (5 KT):0
Visibility: greater than 7 mile(s):0
Sky conditions: overcast
Temperature: 51 F (11 C)
Dew Point: 50 F (10 C)
Relative Humidity: 93%
Pressure (altimeter): 29.53 in. Hg (1000 hPa)
ob: ESSB 260050Z AUTO 21005KT 9999 SCT016/// BKN026/// OVC047/// 11/10 Q1000
cycle: 1

Station Type Date Time Source
ESSB TAF 2017/03/27 06:35 UTC NOAA

TAF ESSB 270530Z 2706/2724 27008KT CAVOK
BECMG 2710/2713 29015G25KT

Example: see airport list